AXM6041 WMKJ-WMKK
Flight info
| Callsign | AXM6041 |
|---|---|
| Flight time | 0h 35m |
| Altitude | 24000 |
| Route | PIMOK1K PIMOK DCT ARAMA DCT TOPOR DCT RUSBU DCT VASMA DCT KK846 DCT KARBO DCT FF32L DCT |
| Aircraft | A20N/M-VGDW/C |
Departure
| Time | 2026-05-08 17:40 |
|---|---|
| Airport | Senai International Airport (WMKJ) |
Arrival
| Time | 2026-05-08 18:16 |
|---|---|
| Airport | Kuala Lumpur International Airport (WMKK) |
| Time | Latitude | Longitude | Altitude | Speed | Heading |
|---|---|---|---|---|---|
| 2026-05-08 17:25 | 1.64312 | 103.66842 | 154 ft | 1 kts | 232° |
| 2026-05-08 17:25 | 1.64309 | 103.66841 | 154 ft | 1 kts | 214° |
| 2026-05-08 17:25 | 1.64303 | 103.66843 | 154 ft | 3 kts | 179° |
| 2026-05-08 17:25 | 1.64272 | 103.66861 | 154 ft | 9 kts | 153° |
| 2026-05-08 17:26 | 1.64252 | 103.66870 | 154 ft | 3 kts | 155° |
| 2026-05-08 17:26 | 1.64219 | 103.66885 | 154 ft | 8 kts | 155° |
| 2026-05-08 17:26 | 1.64193 | 103.66895 | 154 ft | 0 kts | 160° |
| 2026-05-08 17:27 | 1.63916 | 103.66995 | 153 ft | 84 kts | 160° |
| 2026-05-08 17:27 | 1.63144 | 103.67270 | 152 ft | 0 kts | 161° |
| 2026-05-08 17:27 | 1.64444 | 103.66508 | 153 ft | 0 kts | 339° |
| 2026-05-08 17:28 | 1.64797 | 103.66673 | 154 ft | 0 kts | 161° |
| 2026-05-08 17:39 | 1.64789 | 103.66675 | 154 ft | 15 kts | 161° |
| 2026-05-08 17:39 | 1.64417 | 103.66809 | 154 ft | 101 kts | 159° |
| 2026-05-08 17:40 | 1.63499 | 103.67143 | 153 ft | 176 kts | 160° |
| 2026-05-08 17:40 | 1.62210 | 103.67608 | 536 ft | 211 kts | 161° |
| 2026-05-08 17:40 | 1.60720 | 103.67847 | 1386 ft | 227 kts | 185° |
| 2026-05-08 17:40 | 1.59231 | 103.67358 | 2598 ft | 230 kts | 213° |
| 2026-05-08 17:41 | 1.58132 | 103.66149 | 3636 ft | 244 kts | 241° |
| 2026-05-08 17:41 | 1.57481 | 103.64509 | 4545 ft | 263 kts | 251° |
| 2026-05-08 17:41 | 1.56874 | 103.62704 | 5318 ft | 282 kts | 250° |
| 2026-05-08 17:41 | 1.56191 | 103.60808 | 6149 ft | 297 kts | 249° |
| 2026-05-08 17:42 | 1.55451 | 103.58867 | 6973 ft | 308 kts | 249° |
| 2026-05-08 17:42 | 1.54486 | 103.56923 | 7875 ft | 316 kts | 237° |
| 2026-05-08 17:42 | 1.53268 | 103.55064 | 8805 ft | 324 kts | 238° |
| 2026-05-08 17:42 | 1.52127 | 103.53095 | 9757 ft | 331 kts | 242° |
| 2026-05-08 17:43 | 1.51130 | 103.50999 | 10627 ft | 338 kts | 246° |
| 2026-05-08 17:43 | 1.50232 | 103.48797 | 11528 ft | 344 kts | 249° |
| 2026-05-08 17:43 | 1.49385 | 103.46540 | 12452 ft | 350 kts | 249° |
| 2026-05-08 17:43 | 1.48547 | 103.44235 | 13397 ft | 355 kts | 250° |
| 2026-05-08 17:44 | 1.47704 | 103.41900 | 14281 ft | 359 kts | 250° |
| 2026-05-08 17:44 | 1.46850 | 103.39545 | 15154 ft | 362 kts | 250° |
| 2026-05-08 17:44 | 1.46012 | 103.37158 | 16049 ft | 365 kts | 255° |
| 2026-05-08 17:44 | 1.45718 | 103.34674 | 16966 ft | 366 kts | 273° |
| 2026-05-08 17:45 | 1.46221 | 103.32155 | 17928 ft | 366 kts | 292° |
| 2026-05-08 17:45 | 1.47434 | 103.29982 | 18786 ft | 363 kts | 309° |
| 2026-05-08 17:45 | 1.49010 | 103.27983 | 19660 ft | 362 kts | 309° |
| 2026-05-08 17:45 | 1.50547 | 103.26033 | 20525 ft | 360 kts | 309° |
| 2026-05-08 17:46 | 1.52092 | 103.24065 | 21332 ft | 361 kts | 309° |
| 2026-05-08 17:46 | 1.53654 | 103.22070 | 21948 ft | 365 kts | 309° |
| 2026-05-08 17:46 | 1.55180 | 103.20115 | 22551 ft | 351 kts | 309° |
| 2026-05-08 17:46 | 1.56678 | 103.18194 | 23188 ft | 348 kts | 309° |
| 2026-05-08 17:47 | 1.58184 | 103.16264 | 23492 ft | 357 kts | 309° |
| 2026-05-08 17:47 | 1.59740 | 103.14273 | 23588 ft | 370 kts | 309° |
| 2026-05-08 17:47 | 1.61314 | 103.12182 | 23681 ft | 383 kts | 305° |
| 2026-05-08 17:47 | 1.62244 | 103.10662 | 23747 ft | 392 kts | 300° |
| 2026-05-08 17:48 | 1.63981 | 103.07369 | 23868 ft | 407 kts | 299° |
| 2026-05-08 17:48 | 1.65332 | 103.04825 | 23881 ft | 420 kts | 299° |
| 2026-05-08 17:48 | 1.66726 | 103.02211 | 23884 ft | 433 kts | 299° |
| 2026-05-08 17:48 | 1.68162 | 102.99521 | 23882 ft | 444 kts | 299° |
| 2026-05-08 17:49 | 1.69636 | 102.96757 | 23881 ft | 455 kts | 299° |
| 2026-05-08 17:49 | 1.71141 | 102.93935 | 23883 ft | 464 kts | 299° |
| 2026-05-08 17:49 | 1.72652 | 102.91101 | 23878 ft | 473 kts | 299° |
| 2026-05-08 17:49 | 1.74371 | 102.88268 | 23881 ft | 479 kts | 306° |
| 2026-05-08 17:50 | 1.76379 | 102.85580 | 23880 ft | 486 kts | 308° |
| 2026-05-08 17:50 | 1.78434 | 102.82866 | 23880 ft | 492 kts | 308° |
| 2026-05-08 17:50 | 1.80509 | 102.80114 | 23880 ft | 497 kts | 308° |
| 2026-05-08 17:50 | 1.82594 | 102.77345 | 23880 ft | 502 kts | 308° |
| 2026-05-08 17:51 | 1.84711 | 102.74535 | 23880 ft | 506 kts | 308° |
| 2026-05-08 17:51 | 1.86837 | 102.71711 | 23882 ft | 509 kts | 308° |
| 2026-05-08 17:51 | 1.88983 | 102.68862 | 23882 ft | 512 kts | 308° |
| 2026-05-08 17:51 | 1.91098 | 102.66054 | 23882 ft | 513 kts | 308° |
| 2026-05-08 17:52 | 1.93254 | 102.63192 | 23881 ft | 514 kts | 308° |
| 2026-05-08 17:52 | 1.95405 | 102.60335 | 23880 ft | 515 kts | 308° |
| 2026-05-08 17:52 | 1.99715 | 102.54591 | 23853 ft | 517 kts | 306° |
| 2026-05-08 17:53 | 2.01495 | 102.51474 | 23823 ft | 518 kts | 295° |
| 2026-05-08 17:53 | 2.02667 | 102.48062 | 23830 ft | 519 kts | 283° |
| 2026-05-08 17:53 | 2.03242 | 102.44507 | 23871 ft | 518 kts | 277° |
| 2026-05-08 17:53 | 2.03697 | 102.40936 | 23896 ft | 518 kts | 277° |
| 2026-05-08 17:54 | 2.04159 | 102.37357 | 23915 ft | 517 kts | 277° |
| 2026-05-08 17:54 | 2.04622 | 102.33820 | 23836 ft | 513 kts | 277° |
| 2026-05-08 17:54 | 2.05092 | 102.30275 | 23537 ft | 512 kts | 277° |
| 2026-05-08 17:54 | 2.05560 | 102.26760 | 23175 ft | 511 kts | 278° |
| 2026-05-08 17:55 | 2.06029 | 102.23250 | 22893 ft | 508 kts | 277° |
| 2026-05-08 17:55 | 2.06491 | 102.19796 | 22626 ft | 506 kts | 277° |
| 2026-05-08 17:55 | 2.06955 | 102.16320 | 22367 ft | 503 kts | 278° |
| 2026-05-08 17:55 | 2.07672 | 102.12914 | 22096 ft | 501 kts | 288° |
| 2026-05-08 17:56 | 2.09014 | 102.09720 | 21833 ft | 498 kts | 299° |
| 2026-05-08 17:56 | 2.10942 | 102.06853 | 21567 ft | 496 kts | 310° |
| 2026-05-08 17:56 | 2.13378 | 102.04427 | 21306 ft | 493 kts | 322° |
| 2026-05-08 17:56 | 2.16219 | 102.02522 | 21058 ft | 491 kts | 331° |
| 2026-05-08 17:57 | 2.19211 | 102.00901 | 20819 ft | 489 kts | 334° |
| 2026-05-08 17:57 | 2.22355 | 101.99628 | 20589 ft | 486 kts | 344° |
| 2026-05-08 17:57 | 2.25643 | 101.98867 | 20381 ft | 484 kts | 350° |
| 2026-05-08 17:57 | 2.28953 | 101.98242 | 20168 ft | 483 kts | 348° |
| 2026-05-08 17:58 | 2.32178 | 101.97341 | 19959 ft | 483 kts | 340° |
| 2026-05-08 17:58 | 2.35235 | 101.95927 | 19756 ft | 482 kts | 333° |
| 2026-05-08 17:58 | 2.38320 | 101.94644 | 19558 ft | 480 kts | 345° |
| 2026-05-08 17:58 | 2.41591 | 101.94005 | 19369 ft | 477 kts | 356° |
| 2026-05-08 17:59 | 2.44885 | 101.94040 | 19187 ft | 474 kts | 8° |
| 2026-05-08 17:59 | 2.48033 | 101.94713 | 18896 ft | 449 kts | 20° |
| 2026-05-08 17:59 | 2.50775 | 101.95930 | 18390 ft | 425 kts | 32° |
| 2026-05-08 17:59 | 2.53074 | 101.97680 | 17575 ft | 410 kts | 46° |
| 2026-05-08 18:00 | 2.54777 | 101.99897 | 16697 ft | 397 kts | 62° |
| 2026-05-08 18:00 | 2.55891 | 102.05084 | 14986 ft | 378 kts | 97° |
| 2026-05-08 18:00 | 2.55189 | 102.07583 | 14165 ft | 371 kts | 117° |
| 2026-05-08 18:01 | 2.53717 | 102.09655 | 13324 ft | 364 kts | 137° |
| 2026-05-08 18:01 | 2.51821 | 102.11321 | 12437 ft | 360 kts | 140° |
| 2026-05-08 18:01 | 2.49920 | 102.12934 | 11574 ft | 356 kts | 140° |
| 2026-05-08 18:01 | 2.48032 | 102.14533 | 10736 ft | 353 kts | 140° |
| 2026-05-08 18:02 | 2.46150 | 102.16125 | 9925 ft | 357 kts | 140° |
| 2026-05-08 18:02 | 2.44885 | 102.17193 | 9350 ft | 361 kts | 140° |
| 2026-05-08 18:02 | 2.42209 | 102.19270 | 8168 ft | 366 kts | 146° |
| 2026-05-08 18:02 | 2.39962 | 102.20386 | 7380 ft | 367 kts | 165° |
| 2026-05-08 18:03 | 2.37423 | 102.20643 | 6766 ft | 361 kts | 185° |
| 2026-05-08 18:03 | 2.35025 | 102.19995 | 6161 ft | 356 kts | 206° |
| 2026-05-08 18:03 | 2.32878 | 102.18850 | 5541 ft | 352 kts | 209° |
| 2026-05-08 18:03 | 2.30872 | 102.17496 | 4910 ft | 348 kts | 224° |
| 2026-05-08 18:04 | 2.29433 | 102.15574 | 4295 ft | 343 kts | 239° |
| 2026-05-08 18:04 | 2.28527 | 102.13412 | 3948 ft | 330 kts | 258° |
| 2026-05-08 18:04 | 2.28495 | 102.11193 | 3829 ft | 312 kts | 281° |
| 2026-05-08 18:04 | 2.29285 | 102.09241 | 3719 ft | 296 kts | 302° |
| 2026-05-08 18:05 | 2.30531 | 102.07669 | 3616 ft | 281 kts | 310° |
| 2026-05-08 18:05 | 2.31766 | 102.06209 | 3520 ft | 267 kts | 309° |
| 2026-05-08 18:05 | 2.32912 | 102.04845 | 3509 ft | 251 kts | 309° |
| 2026-05-08 18:05 | 2.34004 | 102.03542 | 3506 ft | 244 kts | 309° |
| 2026-05-08 18:06 | 2.35111 | 102.02221 | 3502 ft | 241 kts | 309° |
| 2026-05-08 18:06 | 2.36198 | 102.00927 | 3502 ft | 245 kts | 309° |
| 2026-05-08 18:06 | 2.37279 | 101.99641 | 3498 ft | 245 kts | 309° |
| 2026-05-08 18:06 | 2.38379 | 101.98334 | 3494 ft | 245 kts | 309° |
| 2026-05-08 18:07 | 2.39479 | 101.97028 | 3492 ft | 246 kts | 309° |
| 2026-05-08 18:07 | 2.40565 | 101.95739 | 3487 ft | 236 kts | 309° |
| 2026-05-08 18:07 | 2.41586 | 101.94529 | 3482 ft | 219 kts | 309° |
| 2026-05-08 18:07 | 2.42531 | 101.93407 | 3474 ft | 203 kts | 309° |
| 2026-05-08 18:08 | 2.43415 | 101.92359 | 3485 ft | 198 kts | 309° |
| 2026-05-08 18:08 | 2.44307 | 101.91298 | 3498 ft | 199 kts | 309° |
| 2026-05-08 18:08 | 2.45210 | 101.90223 | 3480 ft | 202 kts | 309° |
| 2026-05-08 18:08 | 2.46115 | 101.89148 | 3483 ft | 203 kts | 309° |
| 2026-05-08 18:09 | 2.47055 | 101.88122 | 3482 ft | 202 kts | 317° |
| 2026-05-08 18:09 | 2.48207 | 101.87300 | 3484 ft | 203 kts | 326° |
| 2026-05-08 18:09 | 2.49396 | 101.86519 | 3486 ft | 203 kts | 325° |
| 2026-05-08 18:09 | 2.50572 | 101.85735 | 3489 ft | 204 kts | 325° |
| 2026-05-08 18:10 | 2.51751 | 101.84943 | 3486 ft | 203 kts | 325° |
| 2026-05-08 18:10 | 2.52927 | 101.84154 | 3485 ft | 204 kts | 325° |
| 2026-05-08 18:10 | 2.54107 | 101.83363 | 3488 ft | 204 kts | 325° |
| 2026-05-08 18:10 | 2.55230 | 101.82610 | 3493 ft | 184 kts | 325° |
| 2026-05-08 18:11 | 2.56245 | 101.81932 | 3486 ft | 172 kts | 324° |
| 2026-05-08 18:11 | 2.57238 | 101.81265 | 3491 ft | 172 kts | 324° |
| 2026-05-08 18:11 | 2.58231 | 101.80597 | 3492 ft | 171 kts | 324° |
| 2026-05-08 18:11 | 2.59219 | 101.79934 | 3494 ft | 171 kts | 324° |
| 2026-05-08 18:12 | 2.60200 | 101.79258 | 3491 ft | 171 kts | 323° |
| 2026-05-08 18:12 | 2.61157 | 101.78607 | 3488 ft | 155 kts | 324° |
| 2026-05-08 18:12 | 2.61984 | 101.78056 | 3496 ft | 140 kts | 324° |
| 2026-05-08 18:12 | 2.62791 | 101.77510 | 3432 ft | 142 kts | 323° |
| 2026-05-08 18:13 | 2.63593 | 101.76954 | 3169 ft | 137 kts | 323° |
| 2026-05-08 18:13 | 2.64387 | 101.76416 | 2896 ft | 138 kts | 324° |
| 2026-05-08 18:13 | 2.65193 | 101.75889 | 2604 ft | 138 kts | 324° |
| 2026-05-08 18:13 | 2.66002 | 101.75360 | 2247 ft | 141 kts | 324° |
| 2026-05-08 18:14 | 2.66823 | 101.74821 | 1820 ft | 144 kts | 324° |
| 2026-05-08 18:14 | 2.67676 | 101.74270 | 1382 ft | 148 kts | 326° |
| 2026-05-08 18:14 | 2.68527 | 101.73710 | 1032 ft | 143 kts | 324° |
| 2026-05-08 18:14 | 2.69342 | 101.73153 | 721 ft | 140 kts | 325° |
| 2026-05-08 18:15 | 2.69875 | 101.72786 | 538 ft | 135 kts | 325° |
| 2026-05-08 18:15 | 2.70891 | 101.72088 | 260 ft | 134 kts | 327° |
| 2026-05-08 18:15 | 2.71666 | 101.71578 | 91 ft | 132 kts | 325° |
| 2026-05-08 18:15 | 2.72400 | 101.71083 | 56 ft | 113 kts | 324° |
| 2026-05-08 18:16 | 2.72758 | 101.70844 | 57 ft | 74 kts | 326° |
| 2026-05-08 18:16 | 2.73035 | 101.70707 | 65 ft | 16 kts | 351° |
| 2026-05-08 18:16 | 2.73093 | 101.70699 | 61 ft | 9 kts | 352° |
| 2026-05-08 18:16 | 2.73169 | 101.70693 | 63 ft | 13 kts | 358° |
| 2026-05-08 18:17 | 2.73274 | 101.70689 | 64 ft | 17 kts | 355° |
| 2026-05-08 18:17 | 2.73397 | 101.70649 | 70 ft | 20 kts | 327° |
| 2026-05-08 18:17 | 2.73523 | 101.70565 | 68 ft | 24 kts | 327° |
| 2026-05-08 18:17 | 2.73674 | 101.70468 | 74 ft | 27 kts | 326° |
| 2026-05-08 18:18 | 2.73844 | 101.70352 | 66 ft | 32 kts | 326° |
| 2026-05-08 18:18 | 2.74043 | 101.70216 | 63 ft | 36 kts | 327° |
| 2026-05-08 18:18 | 2.74253 | 101.70073 | 59 ft | 36 kts | 325° |
| 2026-05-08 18:18 | 2.74434 | 101.69954 | 66 ft | 9 kts | 309° |
| 2026-05-08 18:19 | 2.74443 | 101.69935 | 64 ft | 9 kts | 285° |
| 2026-05-08 18:19 | 2.74426 | 101.69873 | 63 ft | 9 kts | 238° |
| 2026-05-08 18:19 | 2.74386 | 101.69811 | 65 ft | 13 kts | 232° |
| 2026-05-08 18:19 | 2.74322 | 101.69725 | 62 ft | 18 kts | 233° |
| 2026-05-08 18:20 | 2.74241 | 101.69603 | 50 ft | 24 kts | 237° |
| 2026-05-08 18:20 | 2.74133 | 101.69446 | 49 ft | 29 kts | 234° |
| 2026-05-08 18:20 | 2.74018 | 101.69274 | 49 ft | 31 kts | 238° |
| 2026-05-08 18:20 | 2.73896 | 101.69093 | 49 ft | 32 kts | 237° |
| 2026-05-08 18:21 | 2.73768 | 101.68909 | 49 ft | 33 kts | 233° |
| 2026-05-08 18:21 | 2.73641 | 101.68719 | 48 ft | 33 kts | 236° |
| 2026-05-08 18:21 | 2.73508 | 101.68528 | 48 ft | 34 kts | 235° |
| 2026-05-08 18:21 | 2.73425 | 101.68391 | 44 ft | 10 kts | 261° |
| 2026-05-08 18:22 | 2.73464 | 101.68328 | 43 ft | 13 kts | 319° |
| 2026-05-08 18:22 | 2.73505 | 101.68296 | 43 ft | 0 kts | 322° |
| 2026-05-08 18:22 | 2.73516 | 101.68288 | 43 ft | 4 kts | 327° |
| 2026-05-08 18:22 | 2.73556 | 101.68263 | 41 ft | 9 kts | 328° |
| 2026-05-08 18:23 | 2.73620 | 101.68222 | 43 ft | 13 kts | 326° |
| 2026-05-08 18:23 | 2.73672 | 101.68199 | 44 ft | 2 kts | 22° |
| 2026-05-08 18:23 | 2.73685 | 101.68205 | 44 ft | 3 kts | 23° |
| 2026-05-08 18:23 | 2.73693 | 101.68212 | 43 ft | 1 kts | 47° |
| 2026-05-08 18:24 | 2.73699 | 101.68219 | 45 ft | 2 kts | 47° |
| 2026-05-08 18:24 | 2.73706 | 101.68229 | 46 ft | 2 kts | 58° |
| 2026-05-08 18:24 | 2.73718 | 101.68247 | 47 ft | 4 kts | 57° |
| 2026-05-08 18:24 | 2.73740 | 101.68279 | 48 ft | 7 kts | 55° |
| 2026-05-08 18:25 | 2.73775 | 101.68328 | 48 ft | 11 kts | 54° |
| 2026-05-08 18:25 | 2.73825 | 101.68399 | 48 ft | 14 kts | 55° |
| 2026-05-08 18:25 | 2.73886 | 101.68491 | 48 ft | 17 kts | 57° |
| 2026-05-08 18:25 | 2.73957 | 101.68593 | 49 ft | 14 kts | 54° |
| 2026-05-08 18:26 | 2.73990 | 101.68636 | 49 ft | 1 kts | 53° |
| 2026-05-08 18:26 | 2.73992 | 101.68645 | 49 ft | 0 kts | 90° |
| 2026-05-08 18:26 | 2.73988 | 101.68655 | 49 ft | 2 kts | 118° |
| 2026-05-08 18:26 | 2.73958 | 101.68680 | 49 ft | 8 kts | 147° |
| 2026-05-08 18:27 | 2.73924 | 101.68703 | 49 ft | 3 kts | 147° |
| 2026-05-08 18:27 | 2.73920 | 101.68705 | 49 ft | 0 kts | 146° |